Time;durP1;ratioP1;P1;durP2;ratioP2;P2;SDS_P1;SDS_P2;PMS_P1;PMS_P2;Temp;Humidity;BMP_temperature;BMP_pressure;BME280_temperature;BME280_humidity;BME280_pressure;Samples;Min_cycle;Max_cycle;Signal;HPM_P1;HPM_P2
2022/10/19 00:01:13;;;;;;;2.30;2.10;;;18.00;76.00;18.40;97397.00;;;;5081302;28;20223;-84
2022/10/19 00:03:41;;;;;;;2.43;2.20;;;18.00;76.20;18.40;97399.00;;;;5079320;28;20231;-83
2022/10/19 00:06:15;;;;;;;3.40;2.00;;;18.00;76.20;18.50;97392.00;;;;5077713;28;20196;-82
2022/10/19 00:08:43;;;;;;;2.67;2.10;;;18.10;76.50;18.50;97396.00;;;;5078829;28;20220;-82
2022/10/19 00:11:12;;;;;;;2.60;2.10;;;18.10;76.40;18.50;97394.00;;;;5079461;28;20200;-83
2022/10/19 00:13:40;;;;;;;2.50;2.30;;;18.10;76.50;18.50;97398.00;;;;5074995;28;20289;-84
2022/10/19 00:16:15;;;;;;;2.53;1.97;;;18.10;76.60;18.50;97398.00;;;;5079735;28;20227;-82
2022/10/19 00:18:43;;;;;;;2.80;2.30;;;18.10;76.90;18.60;97396.00;;;;5081196;28;20202;-84
2022/10/19 00:21:14;;;;;;;2.10;2.00;;;18.20;76.80;18.60;97395.00;;;;5078299;28;20203;-83
2022/10/19 00:23:42;;;;;;;3.70;2.37;;;18.20;76.80;18.60;97399.00;;;;5077496;28;20215;-84
2022/10/19 00:26:09;;;;;;;3.20;2.20;;;18.20;76.80;18.70;97396.00;;;;5072951;28;20219;-81
2022/10/19 00:28:37;;;;;;;4.23;2.53;;;18.20;76.70;18.70;97399.00;;;;5077452;28;20638;-82
2022/10/19 00:31:06;;;;;;;2.80;2.50;;;18.30;76.80;18.80;97397.00;;;;5078075;28;20232;-82
2022/10/19 00:33:35;;;;;;;2.90;2.60;;;18.30;76.70;18.80;97405.00;;;;5077439;28;20243;-81
2022/10/19 00:36:04;;;;;;;4.10;2.60;;;18.30;76.70;18.80;97408.00;;;;5076581;28;20280;-81
2022/10/19 00:38:34;;;;;;;2.30;2.10;;;18.30;76.70;18.80;97407.00;;;;5078038;28;20204;-82
2022/10/19 00:41:03;;;;;;;2.93;2.60;;;18.40;76.90;18.90;97398.00;;;;5075096;28;20220;-83
2022/10/19 00:43:31;;;;;;;2.53;2.20;;;18.40;76.80;18.90;97400.00;;;;5075001;28;20219;-82
2022/10/19 00:45:58;;;;;;;4.00;2.13;;;18.40;76.80;18.90;97395.00;;;;5076663;28;20253;-82
2022/10/19 00:48:31;;;;;;;2.20;2.10;;;18.40;76.80;18.90;97391.00;;;;5078036;28;20567;-82
2022/10/19 00:51:01;;;;;;;2.30;2.20;;;18.50;77.00;18.90;97395.00;;;;5081436;28;20199;-83
2022/10/19 00:53:31;;;;;;;2.93;2.57;;;18.50;77.00;18.90;97394.00;;;;5075652;28;20243;-82
2022/10/19 00:56:03;;;;;;;2.33;2.17;;;18.50;77.00;19.00;97393.00;;;;5069076;28;20224;-83
2022/10/19 00:58:30;;;;;;;2.23;2.03;;;18.50;77.00;19.00;97390.00;;;;5077877;28;20261;-82
2022/10/19 01:01:01;;;;;;;2.10;2.00;;;18.50;77.10;19.00;97389.00;;;;5076385;28;20620;-83
2022/10/19 01:03:28;;;;;;;2.50;2.30;;;18.60;77.20;19.00;97381.00;;;;5075587;28;20244;-82
2022/10/19 01:05:56;;;;;;;4.43;2.33;;;18.60;77.10;19.00;97379.00;;;;5075821;28;20200;-83
2022/10/19 01:08:26;;;;;;;2.70;2.33;;;18.60;77.20;19.10;97383.00;;;;5076917;28;20249;-83
2022/10/19 01:11:13;;;;;;;2.40;2.10;;;18.60;77.30;19.10;97387.00;;;;5078154;28;20229;-83
2022/10/19 01:13:55;;;;;;;5.03;2.37;;;18.70;77.40;19.10;97378.00;;;;5066791;28;20227;-83
2022/10/19 01:16:41;;;;;;;2.87;2.37;;;18.70;77.40;19.10;97384.00;;;;5075029;28;20258;-82
2022/10/19 01:19:42;;;;;;;2.53;2.30;;;18.70;77.50;19.10;97386.00;;;;5072995;28;20295;-83
2022/10/19 01:22:26;;;;;;;2.20;2.00;;;18.70;77.50;19.20;97385.00;;;;5070399;28;20294;-82
2022/10/19 01:25:13;;;;;;;2.83;2.40;;;18.70;77.30;19.20;97396.00;;;;5074160;28;20239;-83
2022/10/19 01:28:17;;;;;;;2.70;2.50;;;18.80;78.20;19.20;97388.00;;;;5077607;28;20207;-82
2022/10/19 01:30:53;;;;;;;2.83;2.60;;;18.80;77.60;19.20;97387.00;;;;5070212;28;20200;-82
2022/10/19 01:33:47;;;;;;;4.73;2.87;;;18.80;77.20;19.20;97387.00;;;;5072693;28;20249;-82
2022/10/19 01:36:26;;;;;;;2.50;2.30;;;18.80;77.30;19.20;97379.00;;;;5070304;28;20250;-83
2022/10/19 01:39:02;;;;;;;2.30;2.17;;;18.80;77.10;19.20;97383.00;;;;5072560;28;20800;-83
2022/10/19 01:41:38;;;;;;;2.67;2.47;;;18.80;77.10;19.20;97374.00;;;;5076636;28;20230;-82
2022/10/19 01:44:15;;;;;;;2.73;2.43;;;18.80;77.00;19.20;97376.00;;;;5075165;28;20230;-83
2022/10/19 01:46:52;;;;;;;2.87;2.67;;;18.80;77.00;19.30;97367.00;;;;5069593;28;20238;-83
2022/10/19 01:49:27;;;;;;;2.60;2.40;;;18.80;77.00;19.30;97376.00;;;;5075858;28;20223;-83
2022/10/19 01:52:00;;;;;;;2.50;2.30;;;18.80;77.00;19.20;97370.00;;;;5071058;28;20230;-83
2022/10/19 01:54:37;;;;;;;2.90;2.30;;;18.90;77.00;19.20;97370.00;;;;5074067;28;20654;-83
2022/10/19 01:57:09;;;;;;;3.00;2.27;;;18.90;77.10;19.30;97361.00;;;;5073181;28;20223;-83
2022/10/19 01:59:38;;;;;;;2.70;2.50;;;18.80;77.00;19.30;97363.00;;;;5077411;28;20219;-82
2022/10/19 02:02:10;;;;;;;2.53;2.17;;;18.90;77.00;19.30;97376.00;;;;5073537;28;20220;-83
2022/10/19 02:04:39;;;;;;;2.40;2.20;;;18.90;77.00;19.30;97370.00;;;;5072454;28;20215;-83
2022/10/19 02:07:09;;;;;;;3.27;2.50;;;18.90;77.00;19.30;97376.00;;;;5072539;28;20200;-83
2022/10/19 02:09:37;;;;;;;2.80;2.60;;;18.90;77.00;19.30;97372.00;;;;5077078;28;20230;-83
2022/10/19 02:12:10;;;;;;;3.67;2.67;;;18.90;77.00;19.30;97367.00;;;;5076214;28;20235;-83
2022/10/19 02:14:43;;;;;;;4.03;3.00;;;18.90;77.00;19.30;97373.00;;;;5069753;28;20204;-83
2022/10/19 02:17:16;;;;;;;3.57;3.27;;;18.90;77.00;19.30;97370.00;;;;5076805;28;20295;-83
2022/10/19 02:19:44;;;;;;;2.90;2.70;;;18.90;77.10;19.30;97372.00;;;;5074844;28;20885;-83
2022/10/19 02:22:13;;;;;;;4.80;2.40;;;18.90;77.10;19.30;97373.00;;;;5077218;28;20251;-83
2022/10/19 02:24:40;;;;;;;3.93;2.90;;;18.90;77.20;19.40;97373.00;;;;5075487;28;20249;-82
2022/10/19 02:27:09;;;;;;;2.90;2.70;;;18.90;77.30;19.40;97372.00;;;;5076809;28;20196;-83
2022/10/19 02:29:41;;;;;;;5.17;2.80;;;18.90;77.30;19.40;97366.00;;;;5074735;28;20223;-82
2022/10/19 02:32:09;;;;;;;2.90;2.67;;;18.90;77.30;19.40;97363.00;;;;5075703;28;20242;-82
2022/10/19 02:34:39;;;;;;;3.30;3.10;;;18.90;77.30;19.40;97361.00;;;;5076636;28;20223;-83
2022/10/19 02:37:06;;;;;;;3.27;2.97;;;18.90;77.30;19.40;97358.00;;;;5080879;28;20227;-83
2022/10/19 02:39:34;;;;;;;3.20;2.90;;;19.00;77.40;19.40;97360.00;;;;5078673;28;20246;-83
2022/10/19 02:42:15;;;;;;;3.03;2.83;;;19.00;77.50;19.40;97360.00;;;;5082737;28;20652;-82
2022/10/19 02:44:48;;;;;;;2.97;2.77;;;19.00;77.60;19.40;97354.00;;;;5079027;28;20235;-84
2022/10/19 02:47:25;;;;;;;3.00;2.80;;;19.00;77.50;19.40;97352.00;;;;5076503;28;20204;-82
2022/10/19 02:49:54;;;;;;;3.20;3.00;;;19.00;77.50;19.40;97348.00;;;;5068050;28;20874;-83
2022/10/19 02:52:23;;;;;;;3.23;2.93;;;19.00;77.40;19.40;97346.00;;;;5079155;28;20726;-83
2022/10/19 02:54:51;;;;;;;3.00;2.80;;;19.00;77.40;19.40;97340.00;;;;5074008;28;20568;-82
2022/10/19 02:57:22;;;;;;;2.60;2.37;;;19.00;78.20;19.50;97340.00;;;;5079833;28;20774;-82
2022/10/19 02:59:50;;;;;;;2.73;2.37;;;19.00;77.50;19.50;97339.00;;;;5081440;28;20215;-82
2022/10/19 03:02:19;;;;;;;2.77;2.57;;;19.00;77.40;19.50;97337.00;;;;5080864;28;20216;-81
2022/10/19 03:04:47;;;;;;;3.20;2.80;;;19.00;77.40;19.50;97340.00;;;;5078013;28;20261;-83
2022/10/19 03:07:21;;;;;;;3.07;2.73;;;19.00;77.30;19.40;97337.00;;;;5076534;28;20196;-83
2022/10/19 03:09:48;;;;;;;2.50;2.30;;;19.00;77.30;19.40;97331.00;;;;5081383;28;20277;-83
2022/10/19 03:12:16;;;;;;;2.90;2.60;;;19.00;77.20;19.40;97327.00;;;;5082729;28;20219;-83
2022/10/19 03:14:43;;;;;;;3.73;2.53;;;19.00;77.10;19.40;97331.00;;;;5078839;28;20588;-82
2022/10/19 03:17:11;;;;;;;3.17;2.33;;;19.00;77.00;19.40;97326.00;;;;5088664;28;20255;-82
2022/10/19 03:19:39;;;;;;;2.67;2.40;;;19.00;77.00;19.40;97329.00;;;;5079166;28;20224;-81
2022/10/19 03:22:09;;;;;;;2.57;2.37;;;19.00;76.90;19.30;97336.00;;;;5079187;28;20247;-82
2022/10/19 03:24:37;;;;;;;2.60;2.40;;;19.00;76.80;19.30;97335.00;;;;5078635;28;20273;-83
2022/10/19 03:27:04;;;;;;;2.63;2.43;;;19.00;76.70;19.30;97331.00;;;;5079250;28;20219;-82
2022/10/19 03:29:32;;;;;;;2.60;2.40;;;18.90;76.70;19.30;97330.00;;;;5079269;28;20282;-83
2022/10/19 03:31:59;;;;;;;2.70;2.50;;;18.90;76.60;19.30;97316.00;;;;5082254;28;20204;-81
2022/10/19 03:34:26;;;;;;;2.70;2.57;;;18.90;77.20;19.30;97326.00;;;;5075170;28;20250;-83
2022/10/19 03:36:53;;;;;;;2.67;2.40;;;18.90;76.40;19.20;97326.00;;;;5080355;28;20259;-82
2022/10/19 03:39:23;;;;;;;2.40;2.30;;;18.90;76.30;19.20;97325.00;;;;5078654;28;20827;-82
2022/10/19 03:41:51;;;;;;;3.07;2.43;;;18.90;76.30;19.10;97322.00;;;;5080334;28;20224;-82
2022/10/19 03:44:19;;;;;;;2.60;2.40;;;18.80;75.90;19.10;97319.00;;;;5075581;28;20227;-82
2022/10/19 03:46:48;;;;;;;2.60;2.40;;;18.80;75.70;19.00;97312.00;;;;5079137;28;20222;-83
2022/10/19 03:49:20;;;;;;;2.50;2.30;;;18.80;75.60;19.00;97309.00;;;;5079964;28;20196;-81
2022/10/19 03:51:48;;;;;;;2.60;2.40;;;18.70;75.60;19.00;97308.00;;;;5075661;28;20227;-82
2022/10/19 03:54:17;;;;;;;3.07;2.60;;;18.70;75.70;18.90;97314.00;;;;5072096;28;20253;-83
2022/10/19 03:56:44;;;;;;;2.57;2.37;;;18.60;75.70;18.90;97316.00;;;;5079637;28;20251;-84
2022/10/19 03:59:17;;;;;;;3.37;2.33;;;18.60;75.60;18.90;97313.00;;;;5076530;28;20545;-84
2022/10/19 04:01:46;;;;;;;2.67;2.40;;;18.60;75.60;18.80;97319.00;;;;5076728;28;20195;-82
2022/10/19 04:04:16;;;;;;;2.90;2.70;;;18.50;75.60;18.80;97316.00;;;;5078127;28;20223;-82
2022/10/19 04:06:47;;;;;;;2.90;2.57;;;18.50;75.80;18.70;97305.00;;;;5079255;28;20639;-82
2022/10/19 04:09:17;;;;;;;3.20;3.00;;;18.50;75.80;18.70;97303.00;;;;5076660;28;20240;-83
2022/10/19 04:11:45;;;;;;;3.10;2.80;;;18.40;75.90;18.70;97314.00;;;;5097197;22;20215;-83
2022/10/19 04:14:18;;;;;;;4.27;2.50;;;18.40;75.90;18.60;97314.00;;;;5066853;28;20204;-83
2022/10/19 04:16:48;;;;;;;4.57;2.90;;;18.40;75.70;18.60;97316.00;;;;5073985;28;20727;-83
2022/10/19 04:19:21;;;;;;;2.80;2.60;;;18.30;75.50;18.50;97319.00;;;;5071620;28;20611;-82
2022/10/19 04:21:52;;;;;;;2.63;2.43;;;18.30;75.40;18.50;97319.00;;;;5074517;28;20606;-83
2022/10/19 04:24:23;;;;;;;2.80;2.60;;;18.20;75.30;18.40;97319.00;;;;5074899;28;20246;-83
2022/10/19 04:27:01;;;;;;;2.80;2.50;;;18.20;75.40;18.40;97318.00;;;;5073696;28;20282;-83
2022/10/19 04:29:30;;;;;;;4.00;3.60;;;18.20;75.40;18.40;97312.00;;;;5068763;28;20653;-83
2022/10/19 04:32:00;;;;;;;5.53;2.43;;;18.00;76.70;18.40;97311.00;;;;5069883;28;20581;-83
2022/10/19 04:34:27;;;;;;;3.07;2.87;;;18.00;76.60;18.40;97311.00;;;;5063857;28;20650;-83
2022/10/19 04:37:06;;;;;;;3.17;2.87;;;18.00;76.60;18.40;97303.00;;;;5074953;28;20598;-83
2022/10/19 04:39:33;;;;;;;3.20;2.90;;;18.00;76.60;18.40;97305.00;;;;5069824;28;20188;-83
2022/10/19 04:42:00;;;;;;;3.60;2.80;;;18.10;76.70;18.40;97304.00;;;;5074979;28;20227;-83
2022/10/19 04:44:27;;;;;;;3.17;2.90;;;18.10;76.80;18.40;97305.00;;;;5075427;28;20337;-83
2022/10/19 04:46:56;;;;;;;3.10;2.90;;;18.10;76.90;18.40;97296.00;;;;5074619;28;20223;-83
2022/10/19 04:49:23;;;;;;;2.97;2.77;;;18.10;77.00;18.40;97299.00;;;;5074524;28;20192;-83
2022/10/19 04:51:53;;;;;;;3.00;2.80;;;18.10;77.10;18.40;97306.00;;;;5071625;28;20256;-83
2022/10/19 04:54:20;;;;;;;3.00;2.80;;;18.10;77.10;18.40;97304.00;;;;5073961;28;20196;-83
2022/10/19 04:56:47;;;;;;;2.77;2.57;;;18.10;77.20;18.40;97298.00;;;;5074639;28;20310;-82
2022/10/19 04:59:14;;;;;;;3.00;2.80;;;18.10;77.30;18.50;97301.00;;;;5075500;28;20660;-82
2022/10/19 05:01:42;;;;;;;6.40;3.47;;;18.10;77.30;18.50;97301.00;;;;5074882;28;20275;-82
2022/10/19 05:04:11;;;;;;;3.30;2.93;;;18.10;77.50;18.50;97297.00;;;;5075105;28;20652;-83
2022/10/19 05:06:38;;;;;;;5.27;3.60;;;18.10;77.60;18.50;97308.00;;;;5074500;28;20573;-83
2022/10/19 05:09:05;;;;;;;5.07;4.57;;;18.10;77.60;18.50;97301.00;;;;5075185;28;20219;-83
2022/10/19 05:11:32;;;;;;;5.17;4.67;;;18.10;77.80;18.60;97306.00;;;;5072842;28;20207;-83
2022/10/19 05:14:00;;;;;;;8.67;6.07;;;18.20;78.10;18.60;97301.00;;;;5072141;28;20676;-81
2022/10/19 05:16:27;;;;;;;6.77;6.10;;;18.20;78.30;18.60;97299.00;;;;5076833;28;20227;-83
2022/10/19 05:18:57;;;;;;;6.90;6.07;;;18.20;78.50;18.60;97299.00;;;;5072746;28;20253;-83
2022/10/19 05:21:27;;;;;;;8.67;6.73;;;18.20;78.70;18.70;97292.00;;;;5066354;28;20196;-83
2022/10/19 05:23:56;;;;;;;8.43;7.23;;;18.20;78.80;18.70;97294.00;;;;5067599;28;20680;-83
2022/10/19 05:26:26;;;;;;;8.63;6.77;;;18.30;78.90;18.70;97297.00;;;;5073199;28;20231;-82
2022/10/19 05:28:58;;;;;;;8.60;6.87;;;18.30;78.90;18.80;97303.00;;;;5074500;28;20200;-83
2022/10/19 05:31:27;;;;;;;8.20;6.80;;;18.30;79.10;18.80;97304.00;;;;5069314;28;20196;-83
2022/10/19 05:33:56;;;;;;;8.27;7.00;;;18.40;79.20;18.80;97306.00;;;;5064140;28;20219;-83
2022/10/19 05:36:27;;;;;;;10.30;7.03;;;18.40;79.30;18.90;97301.00;;;;5074738;28;20562;-83
2022/10/19 05:38:57;;;;;;;9.30;6.87;;;18.40;79.40;18.90;97294.00;;;;5072926;28;20196;-86
2022/10/19 05:41:26;;;;;;;8.27;6.93;;;18.50;79.50;18.90;97303.00;;;;5072634;28;20531;-84
2022/10/19 05:43:56;;;;;;;10.13;7.93;;;18.50;79.50;19.00;97307.00;;;;5069099;28;20247;-84
2022/10/19 05:46:25;;;;;;;10.00;7.60;;;18.50;79.60;19.00;97300.00;;;;5071964;28;20236;-85
2022/10/19 05:48:52;;;;;;;9.00;7.40;;;18.50;79.60;19.10;97299.00;;;;5072675;28;20228;-85
2022/10/19 05:51:22;;;;;;;10.63;7.77;;;18.60;79.70;19.10;97308.00;;;;5064468;28;20205;-84
2022/10/19 05:53:50;;;;;;;9.17;7.57;;;18.60;79.70;19.10;97304.00;;;;5070707;28;20246;-84
2022/10/19 05:56:20;;;;;;;12.07;8.33;;;18.60;79.80;19.20;97311.00;;;;5074207;28;20655;-84
2022/10/19 05:58:48;;;;;;;12.27;7.93;;;18.60;79.80;19.20;97310.00;;;;5070499;28;20192;-85
2022/10/19 06:01:20;;;;;;;9.40;7.40;;;18.60;80.50;19.20;97312.00;;;;5069201;28;20196;-83
2022/10/19 06:03:56;;;;;;;10.40;7.80;;;18.70;79.90;19.20;97316.00;;;;5073559;28;20727;-82
2022/10/19 06:06:27;;;;;;;10.53;7.80;;;18.70;79.80;19.20;97316.00;;;;5076473;28;20203;-83
2022/10/19 06:08:57;;;;;;;8.90;7.07;;;18.70;79.70;19.20;97317.00;;;;5076453;28;20200;-83
2022/10/19 06:11:33;;;;;;;7.13;6.27;;;18.70;79.60;19.20;97314.00;;;;5078475;28;20219;-83
2022/10/19 06:14:03;;;;;;;7.87;6.83;;;18.70;79.60;19.30;97322.00;;;;5070353;28;20227;-82
2022/10/19 06:16:33;;;;;;;12.37;7.27;;;18.80;79.60;19.30;97323.00;;;;5075056;28;20675;-83
2022/10/19 06:19:03;;;;;;;7.50;6.60;;;18.80;79.50;19.30;97323.00;;;;5077472;28;20280;-83
2022/10/19 06:21:32;;;;;;;8.17;6.67;;;18.80;79.50;19.30;97324.00;;;;5079133;28;20220;-83
2022/10/19 06:24:05;;;;;;;9.43;6.83;;;18.80;79.40;19.30;97326.00;;;;5078321;28;20220;-84
2022/10/19 06:26:34;;;;;;;8.27;6.80;;;18.80;79.40;19.30;97322.00;;;;5076840;28;20283;-83
2022/10/19 06:29:03;;;;;;;11.27;7.23;;;18.80;79.30;19.30;97319.00;;;;5075632;28;20196;-83
2022/10/19 06:31:33;;;;;;;10.53;7.67;;;18.90;79.30;19.30;97330.00;;;;5077792;28;20635;-83
2022/10/19 06:34:00;;;;;;;9.33;7.43;;;18.90;79.30;19.20;97328.00;;;;5079732;28;20676;-82
2022/10/19 06:36:30;;;;;;;12.70;8.30;;;18.80;79.20;19.30;97333.00;;;;5078853;28;20212;-84
2022/10/19 06:39:00;;;;;;;9.33;7.87;;;18.90;79.20;19.30;97323.00;;;;5079905;28;20199;-83
2022/10/19 06:41:30;;;;;;;9.77;7.33;;;18.90;79.20;19.30;97327.00;;;;5079239;28;20204;-84
2022/10/19 06:43:57;;;;;;;9.83;7.53;;;18.90;79.20;19.30;97333.00;;;;5073507;28;20299;-84
2022/10/19 06:46:27;;;;;;;9.63;7.47;;;18.90;79.20;19.30;97330.00;;;;5077584;28;20205;-82
2022/10/19 06:48:56;;;;;;;10.00;7.83;;;18.90;79.20;19.30;97333.00;;;;5069634;28;20210;-83
2022/10/19 06:51:25;;;;;;;10.60;8.17;;;18.90;79.30;19.40;97336.00;;;;5079247;28;20698;-83
2022/10/19 06:53:53;;;;;;;10.87;7.87;;;18.90;79.30;19.40;97336.00;;;;5066366;28;20227;-83
2022/10/19 06:56:21;;;;;;;11.13;7.93;;;18.90;79.30;19.40;97335.00;;;;5074427;28;20215;-83
2022/10/19 06:58:49;;;;;;;10.73;7.90;;;18.90;79.20;19.40;97342.00;;;;5079213;28;20238;-82
2022/10/19 07:01:17;;;;;;;9.23;8.20;;;18.90;79.30;19.40;97344.00;;;;5072314;28;20270;-86
2022/10/19 07:03:44;;;;;;;10.80;8.30;;;18.90;79.30;19.50;97341.00;;;;5071095;28;20216;-83
2022/10/19 07:06:14;;;;;;;10.37;8.63;;;19.00;79.40;19.50;97342.00;;;;5073433;28;20218;-83
2022/10/19 07:08:43;;;;;;;8.37;7.43;;;19.00;79.30;19.50;97339.00;;;;5074748;28;20274;-84
2022/10/19 07:11:26;;;;;;;8.00;7.20;;;19.00;79.20;19.50;97344.00;;;;5080279;28;20200;-84
2022/10/19 07:14:01;;;;;;;8.60;7.40;;;19.00;79.30;19.50;97346.00;;;;5073919;28;20347;-84
2022/10/19 07:16:31;;;;;;;9.73;8.03;;;19.10;79.20;19.60;97346.00;;;;5076417;28;20257;-83
2022/10/19 07:19:00;;;;;;;8.77;7.70;;;19.10;79.30;19.60;97352.00;;;;5060381;28;20204;-82
2022/10/19 07:21:28;;;;;;;8.87;7.60;;;19.10;79.20;19.60;97343.00;;;;5076285;28;20649;-84
2022/10/19 07:23:55;;;;;;;9.27;7.97;;;19.10;79.20;19.70;97343.00;;;;5074917;28;20224;-83
2022/10/19 07:26:26;;;;;;;9.40;7.80;;;19.10;79.10;19.70;97349.00;;;;5073629;28;20200;-83
2022/10/19 07:28:57;;;;;;;8.40;7.60;;;19.20;79.20;19.80;97350.00;;;;5075185;28;20206;-84
2022/10/19 07:31:27;;;;;;;9.57;7.57;;;19.20;79.20;19.80;97338.00;;;;5072138;28;20192;-84
2022/10/19 07:33:57;;;;;;;8.53;7.40;;;19.20;79.10;19.80;97330.00;;;;5069546;28;20636;-84
2022/10/19 07:36:28;;;;;;;8.03;7.23;;;19.20;79.70;19.80;97333.00;;;;5072902;28;20216;-84
2022/10/19 07:38:55;;;;;;;7.30;6.53;;;19.30;79.00;19.90;97334.00;;;;5076794;28;20194;-84
2022/10/19 07:41:25;;;;;;;7.23;6.53;;;19.30;78.90;19.90;97349.00;;;;5076384;28;20249;-84
2022/10/19 07:43:53;;;;;;;6.80;6.13;;;19.30;78.90;20.00;97342.00;;;;5076492;28;20670;-84
2022/10/19 07:46:26;;;;;;;7.30;6.60;;;19.40;79.10;20.00;97345.00;;;;5068564;28;20314;-84
2022/10/19 07:48:54;;;;;;;7.53;6.77;;;19.40;79.10;20.10;97344.00;;;;5074177;28;20283;-84
2022/10/19 07:51:23;;;;;;;6.80;6.10;;;19.50;79.00;20.10;97343.00;;;;5077843;28;20196;-84
2022/10/19 07:53:55;;;;;;;6.53;5.93;;;19.50;78.90;20.20;97347.00;;;;5075979;28;20238;-84
2022/10/19 07:56:27;;;;;;;7.33;6.63;;;19.50;79.00;20.20;97348.00;;;;5075717;28;20188;-84
2022/10/19 07:58:57;;;;;;;6.00;5.40;;;19.60;78.90;20.20;97349.00;;;;5075970;28;20219;-84
2022/10/19 08:01:28;;;;;;;6.97;6.17;;;19.60;78.70;20.30;97348.00;;;;5077337;28;20227;-84
2022/10/19 08:03:58;;;;;;;5.53;5.03;;;19.60;78.50;20.30;97350.00;;;;5076606;28;20251;-84
2022/10/19 08:06:26;;;;;;;5.50;5.00;;;19.70;78.40;20.30;97347.00;;;;5076976;28;20204;-84
2022/10/19 08:08:55;;;;;;;6.70;6.07;;;19.70;78.40;20.30;97349.00;;;;5074645;28;20204;-83
2022/10/19 08:11:25;;;;;;;6.33;5.73;;;19.80;78.20;20.40;97343.00;;;;5076614;28;20261;-83
2022/10/19 08:13:57;;;;;;;6.07;4.80;;;19.80;78.10;20.40;97342.00;;;;5076677;28;20365;-85
2022/10/19 08:16:31;;;;;;;5.93;5.33;;;19.80;78.30;20.40;97348.00;;;;5070731;28;20204;-85
2022/10/19 08:19:00;;;;;;;6.23;5.63;;;19.90;78.40;20.50;97353.00;;;;5073298;28;20216;-85
2022/10/19 08:21:30;;;;;;;6.27;5.57;;;19.90;78.10;20.50;97358.00;;;;5073668;28;20261;-85
2022/10/19 08:23:59;;;;;;;6.73;5.80;;;19.90;78.00;20.60;97360.00;;;;5074013;28;20215;-85
2022/10/19 08:26:29;;;;;;;5.60;5.10;;;20.00;78.00;20.60;97354.00;;;;5065353;28;20538;-84
2022/10/19 08:28:59;;;;;;;5.30;4.80;;;20.00;77.80;20.60;97359.00;;;;5076176;28;20253;-84
2022/10/19 08:31:29;;;;;;;5.60;5.10;;;20.00;77.70;20.70;97357.00;;;;5073988;28;20199;-84
2022/10/19 08:33:57;;;;;;;6.00;4.83;;;20.10;77.70;20.70;97353.00;;;;5076087;28;20258;-84
2022/10/19 08:36:24;;;;;;;5.07;4.67;;;20.10;77.60;20.70;97353.00;;;;5066139;28;20232;-83
2022/10/19 08:38:55;;;;;;;5.03;4.63;;;20.10;77.40;20.80;97356.00;;;;5094674;28;20247;-84
2022/10/19 08:41:32;;;;;;;4.90;4.50;;;20.20;77.20;20.80;97352.00;;;;5079749;28;20235;-84
2022/10/19 08:44:42;;;;;;;4.53;3.87;;;20.20;77.10;20.80;97358.00;;;;5072980;28;20231;-83
2022/10/19 08:47:28;;;;;;;4.50;4.20;;;20.20;76.90;20.80;97361.00;;;;5071103;28;20448;-84
2022/10/19 08:49:58;;;;;;;4.73;4.33;;;20.30;76.90;20.80;97362.00;;;;5072668;28;20204;-84
2022/10/19 08:52:30;;;;;;;4.60;4.20;;;20.20;76.70;20.80;97356.00;;;;5083217;28;20247;-84
2022/10/19 08:55:01;;;;;;;4.37;4.00;;;20.30;76.70;20.80;97356.00;;;;5075500;28;20196;-83
2022/10/19 08:57:41;;;;;;;4.07;3.67;;;20.30;76.70;20.90;97355.00;;;;5067575;28;20255;-84
2022/10/19 09:00:19;;;;;;;4.00;3.70;;;20.30;76.50;20.90;97356.00;;;;5073797;28;20253;-84
2022/10/19 09:03:03;;;;;;;3.90;3.60;;;20.40;76.70;20.90;97360.00;;;;5072943;28;20282;-84
2022/10/19 09:05:42;;;;;;;3.67;3.37;;;20.40;76.70;21.00;97359.00;;;;5061655;28;20299;-84
2022/10/19 09:08:12;;;;;;;4.37;3.90;;;20.40;76.70;21.00;97363.00;;;;5071212;28;20196;-84
2022/10/19 09:10:43;;;;;;;3.80;3.50;;;20.40;76.60;21.00;97357.00;;;;5071707;28;20250;-84
2022/10/19 09:13:20;;;;;;;4.40;4.10;;;20.50;76.70;21.10;97351.00;;;;5073492;28;20607;-84
2022/10/19 09:15:51;;;;;;;4.73;4.37;;;20.50;76.90;21.10;97353.00;;;;5069097;28;20692;-84
2022/10/19 09:18:26;;;;;;;5.37;4.87;;;20.50;76.90;21.20;97345.00;;;;5073121;28;20271;-85
2022/10/19 09:21:00;;;;;;;6.10;4.83;;;20.60;77.00;21.30;97349.00;;;;5061608;28;20571;-82
2022/10/19 09:23:35;;;;;;;6.83;5.70;;;20.60;77.00;21.30;97349.00;;;;5075352;28;20259;-83
2022/10/19 09:26:10;;;;;;;6.70;6.10;;;20.70;77.10;21.40;97352.00;;;;5079480;28;20225;-83
2022/10/19 09:28:52;;;;;;;6.40;5.63;;;20.70;76.90;21.40;97354.00;;;;5088442;28;20210;-83
2022/10/19 09:31:29;;;;;;;6.43;5.67;;;20.70;77.00;21.50;97362.00;;;;5070454;28;20277;-83
2022/10/19 09:34:02;;;;;;;6.57;5.97;;;20.80;76.70;21.50;97362.00;;;;5073502;28;20595;-84
2022/10/19 09:36:40;;;;;;;6.30;5.70;;;20.80;76.30;21.50;97362.00;;;;5070718;28;20228;-85
2022/10/19 09:39:12;;;;;;;6.13;5.53;;;20.90;75.80;21.60;97362.00;;;;5074962;28;20258;-84
2022/10/19 09:41:54;;;;;;;6.03;5.50;;;20.90;76.00;21.60;97369.00;;;;5072536;28;20633;-84
2022/10/19 09:44:24;;;;;;;6.73;5.37;;;21.00;75.50;21.60;97370.00;;;;5070813;28;20193;-84
2022/10/19 09:47:01;;;;;;;7.33;6.37;;;21.00;75.80;21.60;97372.00;;;;5068113;28;20222;-83
2022/10/19 09:50:05;;;;;;;7.77;6.17;;;21.00;75.60;21.70;97370.00;;;;5061525;28;20714;-83
2022/10/19 09:52:37;;;;;;;6.40;5.80;;;21.10;75.80;21.70;97375.00;;;;5065553;28;20253;-82
2022/10/19 09:55:18;;;;;;;6.47;5.73;;;21.10;75.80;21.80;97382.00;;;;5082889;28;20209;-83
2022/10/19 09:57:48;;;;;;;6.13;5.57;;;21.10;75.70;21.80;97374.00;;;;5068359;28;20674;-84
2022/10/19 10:00:19;;;;;;;5.80;5.30;;;21.20;75.80;21.90;97369.00;;;;5071610;28;20624;-84
2022/10/19 10:02:54;;;;;;;7.27;5.50;;;21.20;75.80;21.90;97376.00;;;;5071775;28;20311;-84
2022/10/19 10:05:36;;;;;;;5.67;5.17;;;21.30;75.90;22.00;97371.00;;;;5068436;28;20216;-85
2022/10/19 10:08:12;;;;;;;4.87;4.40;;;21.30;75.70;22.00;97378.00;;;;5063452;28;20629;-83
2022/10/19 10:10:44;;;;;;;4.30;4.00;;;21.30;75.50;22.10;97366.00;;;;5074474;28;20190;-83
2022/10/19 10:13:18;;;;;;;4.93;4.53;;;21.40;75.10;22.10;97367.00;;;;5087511;22;20255;-87
2022/10/19 10:15:51;;;;;;;4.50;4.20;;;21.40;74.70;22.10;97373.00;;;;5105333;22;20231;-85
2022/10/19 10:18:19;;;;;;;4.10;3.80;;;21.40;75.00;22.20;97367.00;;;;5102659;28;20692;-85
2022/10/19 10:21:03;;;;;;;3.90;3.60;;;21.40;75.10;22.20;97369.00;;;;5102946;28;20282;-84
2022/10/19 10:23:35;;;;;;;3.80;3.50;;;21.50;75.10;22.30;97365.00;;;;5108466;28;20295;-85
2022/10/19 10:26:04;;;;;;;3.50;3.20;;;21.60;75.10;22.30;97363.00;;;;5087051;28;20233;-85
2022/10/19 10:28:32;;;;;;;4.03;3.73;;;21.60;75.20;22.40;97364.00;;;;5079390;28;20252;-85
2022/10/19 10:31:07;;;;;;;4.20;3.90;;;21.70;74.90;22.50;97360.00;;;;5083224;28;20229;-85
2022/10/19 10:33:37;;;;;;;3.80;3.50;;;21.80;74.30;22.50;97366.00;;;;5083438;28;20199;-85
2022/10/19 10:36:09;;;;;;;4.00;3.60;;;21.80;74.20;22.50;97365.00;;;;5084897;28;20206;-85
2022/10/19 10:38:42;;;;;;;3.70;3.10;;;21.90;73.90;22.50;97364.00;;;;5087201;28;20389;-84
2022/10/19 10:41:16;;;;;;;4.83;3.77;;;21.90;73.50;22.50;97355.00;;;;5085540;28;20275;-85
2022/10/19 10:43:55;;;;;;;3.93;3.63;;;21.90;73.20;22.50;97356.00;;;;5073813;28;20277;-85
2022/10/19 10:46:28;;;;;;;3.87;3.57;;;21.90;73.00;22.50;97353.00;;;;5078950;28;20279;-85
2022/10/19 10:48:59;;;;;;;3.57;3.27;;;22.00;72.60;22.50;97347.00;;;;5079656;28;20287;-85
2022/10/19 10:51:37;;;;;;;4.00;3.70;;;22.00;72.70;22.50;97342.00;;;;5074802;28;20287;-85
2022/10/19 10:54:17;;;;;;;3.37;3.13;;;22.00;72.10;22.50;97345.00;;;;5080808;28;20211;-85
2022/10/19 10:57:00;;;;;;;2.90;2.70;;;22.00;72.30;22.50;97342.00;;;;5088300;28;20219;-84
2022/10/19 10:59:33;;;;;;;3.37;3.07;;;22.00;72.30;22.40;97341.00;;;;5089789;28;20298;-84
2022/10/19 11:02:12;;;;;;;3.90;3.60;;;22.00;72.00;22.40;97338.00;;;;5086572;28;20200;-84
2022/10/19 11:04:44;;;;;;;3.53;3.33;;;21.90;71.40;22.40;97331.00;;;;5093021;28;20218;-85
2022/10/19 11:07:18;;;;;;;3.40;3.20;;;21.90;71.20;22.30;97328.00;;;;5094765;28;20667;-85
2022/10/19 11:09:53;;;;;;;3.80;3.50;;;21.90;71.00;22.30;97330.00;;;;5091648;28;20279;-84
2022/10/19 11:12:33;;;;;;;4.57;4.17;;;21.90;71.20;22.20;97328.00;;;;5088087;28;20194;-85
2022/10/19 11:15:12;;;;;;;4.43;4.13;;;21.90;70.50;22.20;97328.00;;;;5077337;28;20223;-86